Time;durP1;ratioP1;P1;durP2;ratioP2;P2;SDS_P1;SDS_P2;PMS_P1;PMS_P2;Temp;Humidity;BMP_temperature;BMP_pressure;BME280_temperature;BME280_humidity;BME280_pressure;Samples;Min_cycle;Max_cycle;Signal;HPM_P1;HPM_P2
2022/03/12 00:03:50;;;;;;;16.43;7.20;;;-2.50;1.00;;;;;;8331750;28;20304;-64
2022/03/12 00:07:51;;;;;;;19.53;7.43;;;-2.60;1.00;;;;;;8349312;28;20228;-65
2022/03/12 00:11:56;;;;;;;19.53;7.27;;;-2.70;1.00;;;;;;8323261;28;20201;-65
2022/03/12 00:15:58;;;;;;;18.73;8.10;;;-2.70;1.00;;;;;;8348767;28;20243;-64
2022/03/12 00:19:59;;;;;;;21.23;8.20;;;-2.60;1.00;;;;;;8333777;28;20201;-64
2022/03/12 00:24:00;;;;;;;18.77;8.50;;;-2.60;1.00;;;;;;8334698;28;20212;-64
2022/03/12 00:28:02;;;;;;;22.07;8.13;;;-2.50;1.00;;;;;;8348351;28;20278;-63
2022/03/12 00:32:05;;;;;;;18.20;8.20;;;-2.50;1.00;;;;;;8330438;28;20198;-64
2022/03/12 00:36:07;;;;;;;16.27;8.00;;;-2.50;1.00;;;;;;8350450;28;20197;-63
2022/03/12 00:40:09;;;;;;;15.10;7.73;;;-2.50;1.00;;;;;;8328096;28;20205;-63
2022/03/12 00:44:17;;;;;;;14.70;7.60;;;-2.50;1.60;;;;;;8348542;28;20196;-63
2022/03/12 00:48:18;;;;;;;22.60;8.67;;;-2.50;11.00;;;;;;8333248;28;20581;-63
2022/03/12 00:52:19;;;;;;;17.27;8.17;;;-2.50;24.40;;;;;;8346367;28;20357;-62
2022/03/12 00:56:20;;;;;;;17.43;8.13;;;-2.60;23.80;;;;;;8324825;28;20204;-63
2022/03/12 01:00:23;;;;;;;16.97;8.20;;;-2.60;23.40;;;;;;8335381;28;20290;-62
2022/03/12 01:04:24;;;;;;;22.07;8.80;;;-2.60;25.50;;;;;;8327895;28;20207;-61
2022/03/12 01:08:27;;;;;;;16.00;8.13;;;-2.70;39.60;;;;;;8325093;28;20228;-63
2022/03/12 01:12:28;;;;;;;18.07;7.63;;;-2.70;45.60;;;;;;8342645;28;20557;-63
2022/03/12 01:16:29;;;;;;;18.93;8.33;;;-2.80;79.50;;;;;;8326253;28;20227;-63
2022/03/12 01:20:30;;;;;;;18.23;8.00;;;-2.80;92.50;;;;;;8325770;28;20213;-64
2022/03/12 01:24:32;;;;;;;19.03;9.10;;;-2.80;91.60;;;;;;8344438;28;20291;-63
2022/03/12 01:28:33;;;;;;;15.73;8.63;;;-2.70;99.90;;;;;;8328046;28;20216;-64
2022/03/12 01:32:35;;;;;;;21.37;8.10;;;-2.60;91.10;;;;;;8320020;28;20204;-64
2022/03/12 01:36:35;;;;;;;17.27;8.60;;;-2.60;72.90;;;;;;8326724;28;20203;-63
2022/03/12 01:40:36;;;;;;;20.30;9.20;;;-2.60;69.20;;;;;;8328713;28;20533;-63
2022/03/12 01:44:37;;;;;;;20.43;8.27;;;-2.60;83.70;;;;;;8344275;28;20201;-62
2022/03/12 01:48:51;;;;;;;16.77;8.33;;;-2.70;62.90;;;;;;8340162;28;20230;-63
2022/03/12 01:52:58;;;;;;;19.30;8.23;;;-2.70;73.10;;;;;;8338764;28;20238;-62
2022/03/12 01:56:59;;;;;;;19.00;8.47;;;-2.70;71.00;;;;;;8334655;28;20304;-63
2022/03/12 02:01:00;;;;;;;20.17;7.70;;;-2.70;52.90;;;;;;8347817;28;20209;-64
2022/03/12 02:05:05;;;;;;;22.63;8.93;;;-2.70;46.20;;;;;;8330900;28;20201;-64
2022/03/12 02:09:06;;;;;;;20.03;8.77;;;-2.80;56.70;;;;;;8340441;28;20228;-63
2022/03/12 02:13:07;;;;;;;22.87;8.97;;;-2.90;70.90;;;;;;8348712;28;20211;-63
2022/03/12 02:17:12;;;;;;;16.63;7.83;;;-2.90;96.00;;;;;;8349367;28;20208;-63
2022/03/12 02:21:13;;;;;;;21.30;8.47;;;-3.00;95.20;;;;;;8323197;28;20203;-63
2022/03/12 02:25:13;;;;;;;18.10;8.37;;;-3.00;99.90;;;;;;8327210;28;20686;-64
2022/03/12 02:29:21;;;;;;;21.03;9.63;;;-3.00;99.90;;;;;;8347292;28;20227;-63
2022/03/12 02:33:27;;;;;;;27.97;8.73;;;-3.00;99.90;;;;;;8330059;28;20674;-63
2022/03/12 02:37:33;;;;;;;21.60;8.93;;;-3.00;99.90;;;;;;8320460;28;20554;-64
2022/03/12 02:41:33;;;;;;;23.30;9.57;;;-3.00;99.90;;;;;;8347054;28;20402;-64
2022/03/12 02:45:34;;;;;;;15.93;7.97;;;-3.10;99.90;;;;;;8338373;28;20500;-65
2022/03/12 02:49:38;;;;;;;20.17;8.77;;;-3.20;99.90;;;;;;8328852;28;20235;-64
2022/03/12 02:53:39;;;;;;;22.63;8.73;;;-3.30;99.90;;;;;;8349379;28;20201;-63
2022/03/12 02:57:42;;;;;;;17.87;8.83;;;-3.30;99.90;;;;;;8331261;28;20205;-64
2022/03/12 03:01:44;;;;;;;16.30;8.60;;;-3.40;99.90;;;;;;8347013;28;20561;-64
2022/03/12 03:05:47;;;;;;;19.07;8.37;;;-3.50;99.90;;;;;;8330726;28;20298;-63
2022/03/12 03:09:48;;;;;;;19.87;8.53;;;-3.60;99.90;;;;;;8330915;28;20242;-64
2022/03/12 03:13:51;;;;;;;21.40;9.37;;;-3.70;99.90;;;;;;8348773;28;20275;-64
2022/03/12 03:17:53;;;;;;;16.67;8.70;;;-3.80;99.90;;;;;;8334192;28;20203;-65
2022/03/12 03:21:55;;;;;;;23.90;8.97;;;-3.90;1.00;;;;;;8337122;28;20225;-64
2022/03/12 03:25:59;;;;;;;20.60;8.83;;;-4.00;1.00;;;;;;8334910;28;20207;-64
2022/03/12 03:30:00;;;;;;;17.60;8.17;;;-4.10;1.00;;;;;;8336073;28;20201;-64
2022/03/12 03:34:01;;;;;;;21.70;8.53;;;-4.20;1.00;;;;;;8342535;28;20226;-64
2022/03/12 03:38:02;;;;;;;18.27;8.47;;;-4.30;1.00;;;;;;8334743;28;20207;-65
2022/03/12 03:42:03;;;;;;;20.30;9.07;;;-4.30;80.70;;;;;;8333433;28;20240;-64
2022/03/12 03:46:04;;;;;;;22.00;9.17;;;-4.30;99.90;;;;;;8331742;28;20210;-64
2022/03/12 03:50:08;;;;;;;25.67;9.37;;;-4.30;99.90;;;;;;8327851;28;20212;-64
2022/03/12 03:54:10;;;;;;;23.20;9.43;;;-4.20;99.90;;;;;;8348161;28;20198;-64
2022/03/12 03:58:15;;;;;;;17.20;8.90;;;-4.20;97.30;;;;;;8335202;28;20215;-65
2022/03/12 04:02:15;;;;;;;19.37;8.83;;;-4.20;67.50;;;;;;8332370;28;20207;-64
2022/03/12 04:06:21;;;;;;;21.50;9.53;;;-4.20;99.50;;;;;;8324796;28;20230;-64
2022/03/12 04:10:22;;;;;;;17.60;8.70;;;-4.20;99.90;;;;;;8329106;28;20214;-62
2022/03/12 04:14:25;;;;;;;21.50;8.87;;;-4.20;99.90;;;;;;8329942;28;20202;-63
2022/03/12 04:18:27;;;;;;;20.43;9.30;;;-4.20;99.90;;;;;;8333657;28;20218;-63
2022/03/12 04:22:29;;;;;;;16.87;9.03;;;-4.30;99.90;;;;;;8333266;28;20300;-63
2022/03/12 04:26:33;;;;;;;20.93;9.70;;;-4.30;99.90;;;;;;8350703;28;20228;-64
2022/03/12 04:30:35;;;;;;;21.80;10.33;;;-4.40;99.90;;;;;;8341162;28;20210;-65
2022/03/12 04:34:36;;;;;;;19.17;9.30;;;-4.50;99.90;;;;;;8326190;28;20213;-64
2022/03/12 04:38:37;;;;;;;24.17;9.63;;;-4.60;99.90;;;;;;8333954;28;20209;-64
2022/03/12 04:42:43;;;;;;;24.37;9.23;;;-4.60;99.90;;;;;;8332352;28;20209;-63
2022/03/12 04:46:45;;;;;;;19.47;8.87;;;-4.60;99.90;;;;;;8352160;28;20233;-64
2022/03/12 04:50:46;;;;;;;20.40;9.03;;;-4.60;99.90;;;;;;8333209;28;20208;-64
2022/03/12 04:54:46;;;;;;;22.93;8.93;;;-4.70;99.90;;;;;;8333845;28;20281;-64
2022/03/12 04:58:48;;;;;;;25.10;9.97;;;-4.70;99.90;;;;;;8333131;28;20217;-66
2022/03/12 05:02:52;;;;;;;27.30;9.43;;;-4.60;99.90;;;;;;8332000;28;20209;-65
2022/03/12 05:06:53;;;;;;;22.27;9.57;;;-4.60;99.90;;;;;;8333068;28;20257;-63
2022/03/12 05:10:56;;;;;;;20.77;9.77;;;-4.50;99.90;;;;;;8325047;28;20201;-64
2022/03/12 05:14:58;;;;;;;22.90;9.07;;;-4.50;99.90;;;;;;8343581;28;20208;-63
2022/03/12 05:19:00;;;;;;;19.43;8.90;;;-4.40;99.90;;;;;;8323747;28;20212;-63
2022/03/12 05:23:00;;;;;;;17.70;9.13;;;-4.30;99.90;;;;;;8326707;28;20213;-64
2022/03/12 05:27:02;;;;;;;22.53;9.97;;;-4.40;99.90;;;;;;8331257;28;20222;-63
2022/03/12 05:31:08;;;;;;;20.17;8.87;;;-4.40;99.90;;;;;;8342749;28;20209;-64
2022/03/12 05:35:09;;;;;;;23.63;10.23;;;-4.30;99.90;;;;;;8320872;28;20246;-63
2022/03/12 05:39:10;;;;;;;22.03;9.83;;;-4.20;99.90;;;;;;8327805;28;20198;-64
2022/03/12 05:43:14;;;;;;;26.40;9.80;;;-4.20;99.90;;;;;;8337982;28;20301;-63
2022/03/12 05:47:17;;;;;;;21.27;10.53;;;-4.10;99.90;;;;;;8331725;28;20218;-64
2022/03/12 05:51:18;;;;;;;22.73;10.13;;;-4.00;99.90;;;;;;8329467;28;20274;-64
2022/03/12 05:55:23;;;;;;;20.13;9.57;;;-4.00;99.90;;;;;;8325254;28;20323;-63
2022/03/12 05:59:24;;;;;;;20.63;9.20;;;-3.90;89.20;;;;;;8344493;28;20219;-63
2022/03/12 06:03:25;;;;;;;23.70;10.63;;;-3.80;25.80;;;;;;8346532;28;20205;-63
2022/03/12 06:07:27;;;;;;;20.00;9.27;;;-3.60;1.00;;;;;;8329261;28;20225;-64
2022/03/12 06:11:29;;;;;;;27.73;10.90;;;-3.50;1.00;;;;;;8330038;28;20264;-65
2022/03/12 06:15:30;;;;;;;29.37;11.60;;;-3.40;1.00;;;;;;8326307;28;20355;-65
2022/03/12 06:19:31;;;;;;;26.30;10.73;;;-3.30;1.00;;;;;;8324216;28;20200;-65
2022/03/12 06:23:32;;;;;;;24.10;9.60;;;-3.10;1.00;;;;;;8340887;28;20211;-65
2022/03/12 06:27:33;;;;;;;19.70;9.47;;;-3.00;99.90;;;;;;8330141;28;20232;-65
2022/03/12 06:31:34;;;;;;;23.50;9.87;;;-2.70;99.90;;;;;;8339868;28;20207;-66
2022/03/12 06:35:35;;;;;;;27.50;11.13;;;-2.50;99.90;;;;;;8326088;28;20206;-65
2022/03/12 06:39:36;;;;;;;22.30;10.47;;;-2.30;99.90;;;;;;8329921;28;20197;-65
2022/03/12 06:43:42;;;;;;;28.33;12.37;;;-2.20;99.90;;;;;;8331540;28;20215;-66
2022/03/12 06:47:44;;;;;;;30.60;13.60;;;-2.00;97.90;;;;;;8330686;28;20220;-66
2022/03/12 06:51:45;;;;;;;23.57;10.80;;;-1.80;24.60;;;;;;8336664;28;20268;-66
2022/03/12 06:55:46;;;;;;;21.47;11.10;;;-1.50;1.00;;;;;;8342447;28;20530;-65
2022/03/12 06:59:47;;;;;;;24.07;11.73;;;-1.30;1.00;;;;;;8343036;28;20204;-66
2022/03/12 07:03:48;;;;;;;21.03;10.03;;;-1.10;1.00;;;;;;8340824;28;20212;-65
2022/03/12 07:07:50;;;;;;;32.73;12.80;;;-1.00;1.00;;;;;;8341115;28;20216;-65
2022/03/12 07:11:53;;;;;;;31.73;14.60;;;-0.80;1.00;;;;;;8339836;28;20223;-64
2022/03/12 07:15:54;;;;;;;27.03;13.77;;;-0.50;99.90;;;;;;8353116;28;20224;-63
2022/03/12 07:19:55;;;;;;;30.53;12.07;;;-0.30;99.90;;;;;;8338794;28;20208;-67
2022/03/12 07:23:56;;;;;;;34.30;20.17;;;-0.10;99.90;;;;;;8356353;28;20209;-66
2022/03/12 07:27:57;;;;;;;42.77;15.73;;;0.10;99.90;;;;;;8334326;28;20283;-66
2022/03/12 07:31:58;;;;;;;29.33;11.73;;;0.40;99.90;;;;;;8353784;28;20220;-64
2022/03/12 07:35:59;;;;;;;42.07;20.97;;;0.60;99.90;;;;;;8350306;28;20194;-66
2022/03/12 07:40:01;;;;;;;43.53;17.67;;;0.80;99.90;;;;;;8331008;28;20211;-67
2022/03/12 07:44:01;;;;;;;49.60;15.60;;;1.10;99.90;;;;;;8337320;28;20210;-66
2022/03/12 07:48:02;;;;;;;27.23;13.23;;;1.30;99.90;;;;;;8330445;28;20217;-64
2022/03/12 07:52:04;;;;;;;29.63;12.60;;;1.50;99.90;;;;;;8347288;28;20198;-65
2022/03/12 07:56:06;;;;;;;31.00;12.30;;;1.70;99.90;;;;;;8359203;28;20227;-64
2022/03/12 08:00:13;;;;;;;34.10;15.73;;;1.90;99.90;;;;;;8345962;28;20278;-66
2022/03/12 08:04:14;;;;;;;28.50;11.30;;;2.20;93.30;;;;;;8354076;28;20196;-66
2022/03/12 08:08:15;;;;;;;25.77;10.97;;;2.40;57.70;;;;;;8334580;28;20229;-65
2022/03/12 08:12:16;;;;;;;30.30;12.77;;;2.70;30.80;;;;;;8333582;28;20243;-65
2022/03/12 08:16:17;;;;;;;28.20;11.83;;;2.90;9.60;;;;;;8345857;28;20237;-65
2022/03/12 08:20:18;;;;;;;29.27;12.80;;;3.10;1.00;;;;;;8324963;28;20341;-64
2022/03/12 08:24:19;;;;;;;24.83;11.67;;;3.40;1.00;;;;;;8325310;28;20207;-62
2022/03/12 08:28:20;;;;;;;33.13;15.27;;;3.60;1.00;;;;;;8346182;28;20229;-65
2022/03/12 08:32:21;;;;;;;23.50;11.70;;;3.80;1.00;;;;;;8332796;28;20206;-65
2022/03/12 08:36:22;;;;;;;23.50;9.33;;;4.00;1.00;;;;;;8350096;28;20213;-66
2022/03/12 08:40:25;;;;;;;15.53;8.33;;;4.20;1.00;;;;;;8327247;28;20202;-64
2022/03/12 08:44:26;;;;;;;15.37;8.30;;;4.40;1.00;;;;;;8331426;28;20386;-66
2022/03/12 08:48:27;;;;;;;16.73;8.53;;;4.70;1.00;;;;;;8341951;28;20226;-66
2022/03/12 08:52:28;;;;;;;17.07;7.70;;;4.80;1.00;;;;;;8325639;28;20229;-65
2022/03/12 08:56:29;;;;;;;13.07;7.47;;;5.10;1.00;;;;;;8332686;28;20220;-63
2022/03/12 09:00:30;;;;;;;16.80;7.90;;;5.40;1.00;;;;;;8349767;28;20258;-64
2022/03/12 09:04:31;;;;;;;14.50;8.87;;;5.60;1.00;;;;;;8334319;28;20213;-64
2022/03/12 09:08:32;;;;;;;10.67;5.40;;;5.80;1.00;;;;;;8351248;28;20221;-63
2022/03/12 09:12:33;;;;;;;9.93;5.20;;;5.90;1.00;;;;;;8351617;28;20213;-65
2022/03/12 09:16:36;;;;;;;12.87;6.60;;;6.20;1.00;;;;;;8330568;28;20224;-66
2022/03/12 09:20:57;;;;;;;11.70;6.20;;;6.40;1.00;;;;;;8340717;28;20225;-64
2022/03/12 09:24:57;;;;;;;18.03;8.77;;;6.70;1.00;;;;;;8350628;28;20241;-63
2022/03/12 09:28:58;;;;;;;11.03;3.80;;;6.90;1.00;;;;;;8332763;28;20233;-65
2022/03/12 09:32:59;;;;;;;5.80;3.03;;;7.00;1.00;;;;;;8333530;28;20214;-64
2022/03/12 09:37:03;;;;;;;7.33;3.67;;;7.10;1.00;;;;;;8351182;28;20205;-65
2022/03/12 09:41:07;;;;;;;16.43;8.03;;;7.30;1.00;;;;;;8333213;28;20277;-64
2022/03/12 09:45:09;;;;;;;22.17;9.60;;;7.50;1.00;;;;;;8333258;28;20212;-66
2022/03/12 09:49:11;;;;;;;7.93;4.20;;;7.60;1.00;;;;;;8350245;28;20232;-65
2022/03/12 09:53:12;;;;;;;5.67;3.10;;;7.60;1.00;;;;;;8350846;28;20221;-65
2022/03/12 09:57:13;;;;;;;6.90;3.53;;;7.80;1.00;;;;;;8351253;28;20205;-66
2022/03/12 10:01:14;;;;;;;4.60;3.03;;;7.90;1.00;;;;;;8341358;28;20537;-65
2022/03/12 10:05:15;;;;;;;6.50;4.00;;;8.10;1.00;;;;;;8332993;28;20205;-63
2022/03/12 10:09:15;;;;;;;6.47;3.17;;;8.10;1.00;;;;;;8330620;28;20236;-64
2022/03/12 10:13:16;;;;;;;6.33;3.53;;;8.20;1.00;;;;;;8329318;28;20205;-63
2022/03/12 10:17:18;;;;;;;6.80;4.10;;;8.30;1.00;;;;;;8329543;28;20213;-66
2022/03/12 10:21:20;;;;;;;6.43;3.90;;;8.30;1.00;;;;;;8330962;28;20296;-63
2022/03/12 10:25:21;;;;;;;7.70;4.90;;;8.40;1.00;;;;;;8330731;28;20213;-66
2022/03/12 10:29:22;;;;;;;5.60;3.43;;;8.50;1.00;;;;;;8348891;28;20232;-63
2022/03/12 10:33:25;;;;;;;8.73;4.57;;;8.60;1.00;;;;;;8331429;28;20214;-63
2022/03/12 10:37:30;;;;;;;15.13;6.00;;;8.60;1.00;;;;;;8331500;28;20262;-64
2022/03/12 10:41:31;;;;;;;21.10;8.93;;;8.70;1.00;;;;;;8349231;28;20205;-63
2022/03/12 10:45:43;;;;;;;13.07;5.13;;;8.80;1.00;;;;;;8332557;28;20320;-63
2022/03/12 10:50:04;;;;;;;22.37;8.67;;;8.80;1.00;;;;;;8349081;28;20316;-61
2022/03/12 10:54:15;;;;;;;29.13;9.77;;;8.70;1.00;;;;;;8331386;28;20213;-62
2022/03/12 10:58:24;;;;;;;27.57;11.30;;;8.80;1.00;;;;;;8330389;28;20216;-63
2022/03/12 11:02:25;;;;;;;38.77;13.87;;;8.90;1.00;;;;;;8348535;28;20213;-63
2022/03/12 11:06:26;;;;;;;21.80;10.33;;;9.00;1.00;;;;;;8349497;28;20213;-64
2022/03/12 11:10:37;;;;;;;24.07;10.47;;;9.00;1.00;;;;;;8346393;28;20221;-63
2022/03/12 11:14:38;;;;;;;16.53;8.20;;;8.90;1.00;;;;;;8325083;28;20301;-64
2022/03/12 11:18:52;;;;;;;16.33;8.30;;;9.00;1.00;;;;;;8329015;28;20213;-66
2022/03/12 11:23:16;;;;;;;6.40;3.60;;;9.00;1.00;;;;;;8330386;28;20304;-64
2022/03/12 11:27:36;;;;;;;10.00;5.73;;;9.10;1.00;;;;;;8330603;28;20228;-63
2022/03/12 11:31:38;;;;;;;6.50;4.30;;;9.20;1.00;;;;;;8349048;28;20216;-62
2022/03/12 11:35:44;;;;;;;5.73;3.77;;;9.20;1.00;;;;;;8348492;28;20210;-65
2022/03/12 11:39:51;;;;;;;6.57;3.53;;;9.30;1.00;;;;;;8334261;28;20209;-63
2022/03/12 11:43:52;;;;;;;8.83;5.03;;;9.40;1.00;;;;;;8354559;28;20201;-64
2022/03/12 11:47:53;;;;;;;7.97;5.23;;;9.50;1.00;;;;;;8335237;28;20233;-64
2022/03/12 11:51:56;;;;;;;6.60;4.47;;;9.50;1.00;;;;;;8353382;28;20202;-63
2022/03/12 11:55:58;;;;;;;7.00;3.83;;;9.50;1.00;;;;;;8336441;28;21124;-63
2022/03/12 12:00:00;;;;;;;7.23;3.57;;;9.60;1.00;;;;;;8340339;28;20315;-65
2022/03/12 12:04:02;;;;;;;5.77;3.60;;;9.80;1.00;;;;;;8335483;28;20209;-65
2022/03/12 12:08:05;;;;;;;5.60;4.03;;;9.80;1.00;;;;;;8353543;28;20229;-66
2022/03/12 12:12:12;;;;;;;9.90;4.00;;;9.80;1.00;;;;;;8352613;28;20285;-64
2022/03/12 12:16:15;;;;;;;5.80;3.60;;;9.70;1.00;;;;;;8326125;28;20214;-65
2022/03/12 12:20:18;;;;;;;9.63;4.43;;;9.70;1.00;;;;;;8332895;28;20220;-63
2022/03/12 12:24:35;;;;;;;7.20;4.03;;;9.70;1.00;;;;;;8326694;28;20206;-63
2022/03/12 12:28:48;;;;;;;7.50;3.60;;;9.70;1.00;;;;;;8333786;28;20249;-65
2022/03/12 12:32:49;;;;;;;5.90;4.03;;;9.80;1.00;;;;;;8330947;28;20210;-65
2022/03/12 12:36:59;;;;;;;9.17;3.70;;;9.90;1.00;;;;;;8328979;28;20206;-64
2022/03/12 12:41:03;;;;;;;6.87;4.43;;;9.90;1.00;;;;;;8348955;28;20293;-64
2022/03/12 12:45:11;;;;;;;6.43;4.03;;;9.90;1.00;;;;;;8322912;28;20203;-64
2022/03/12 12:49:14;;;;;;;5.93;4.07;;;9.90;1.00;;;;;;8341039;28;20229;-65
2022/03/12 12:53:29;;;;;;;7.20;4.30;;;9.90;1.00;;;;;;8329380;28;20220;-65
2022/03/12 12:57:47;;;;;;;7.67;4.30;;;10.00;1.00;;;;;;8342847;28;20222;-63
2022/03/12 13:01:50;;;;;;;7.27;4.30;;;10.10;1.00;;;;;;8331265;28;20209;-65
2022/03/12 13:05:58;;;;;;;8.87;5.07;;;10.00;1.00;;;;;;8332345;28;20209;-64
2022/03/12 13:10:01;;;;;;;8.10;4.70;;;9.90;1.00;;;;;;8324019;28;20225;-64
2022/03/12 13:14:12;;;;;;;6.83;4.10;;;10.00;1.00;;;;;;8327592;28;20206;-66
2022/03/12 13:18:19;;;;;;;7.20;5.13;;;10.00;1.00;;;;;;8323095;28;20205;-64
2022/03/12 13:22:20;;;;;;;9.63;5.20;;;10.10;1.00;;;;;;8350823;28;20252;-64
2022/03/12 13:26:26;;;;;;;8.13;4.47;;;10.20;1.00;;;;;;8337900;28;20209;-63
2022/03/12 13:30:27;;;;;;;10.07;5.27;;;10.20;1.00;;;;;;8347421;28;20202;-64
2022/03/12 13:34:28;;;;;;;9.30;5.67;;;10.30;1.00;;;;;;8324524;28;20502;-64
2022/03/12 13:38:29;;;;;;;10.73;5.50;;;10.30;1.00;;;;;;8329674;28;20214;-65
2022/03/12 13:42:31;;;;;;;9.70;5.70;;;10.30;1.00;;;;;;8315113;28;20206;-65
2022/03/12 13:46:34;;;;;;;10.23;6.60;;;10.30;1.00;;;;;;8338256;28;20201;-66
2022/03/12 13:50:35;;;;;;;10.17;6.77;;;10.30;1.00;;;;;;8349470;28;20217;-66
2022/03/12 13:54:35;;;;;;;11.30;7.00;;;10.40;1.00;;;;;;8349238;28;20213;-63
2022/03/12 13:58:44;;;;;;;13.83;6.90;;;10.40;1.00;;;;;;8344709;28;20209;-65
2022/03/12 14:02:50;;;;;;;12.17;6.27;;;10.40;1.00;;;;;;8328682;28;20206;-66
2022/03/12 14:06:52;;;;;;;20.10;9.90;;;10.30;1.00;;;;;;8349277;28;20301;-65
2022/03/12 14:10:53;;;;;;;17.57;8.80;;;10.30;1.00;;;;;;8324728;28;20205;-66
2022/03/12 14:14:59;;;;;;;20.30;11.63;;;10.30;1.00;;;;;;8328394;28;20294;-63
2022/03/12 14:19:03;;;;;;;24.17;13.57;;;10.20;1.00;;;;;;8348751;28;20328;-65
2022/03/12 14:23:05;;;;;;;15.13;9.50;;;10.20;1.00;;;;;;8343237;28;20211;-67
2022/03/12 14:27:13;;;;;;;12.70;7.10;;;10.10;1.00;;;;;;8327196;28;20237;-65
2022/03/12 14:31:14;;;;;;;11.03;6.37;;;10.10;1.00;;;;;;8326361;28;20293;-64
2022/03/12 14:35:15;;;;;;;11.03;7.43;;;10.10;1.00;;;;;;8325923;28;20207;-65
2022/03/12 14:39:16;;;;;;;13.50;6.87;;;10.00;1.00;;;;;;8347167;28;20205;-66
2022/03/12 14:43:19;;;;;;;13.07;8.33;;;9.90;1.00;;;;;;8319175;28;20211;-66
2022/03/12 14:47:23;;;;;;;10.90;6.33;;;9.90;1.00;;;;;;8323418;28;20226;-67
2022/03/12 14:51:25;;;;;;;10.77;7.40;;;9.90;1.00;;;;;;8320762;28;20206;-65
2022/03/12 14:55:26;;;;;;;11.53;6.40;;;9.90;1.00;;;;;;8323197;28;20291;-65
2022/03/12 14:59:30;;;;;;;13.97;7.60;;;9.90;1.00;;;;;;8331792;28;20209;-64
2022/03/12 15:03:30;;;;;;;12.00;6.53;;;9.90;1.00;;;;;;8346206;28;20512;-64
2022/03/12 15:07:48;;;;;;;8.27;5.60;;;9.80;1.00;;;;;;8332403;28;20248;-63
2022/03/12 15:12:12;;;;;;;10.93;6.20;;;9.70;1.00;;;;;;8348472;28;20201;-65
2022/03/12 15:16:25;;;;;;;9.57;5.90;;;9.60;1.00;;;;;;8347631;28;20209;-65
2022/03/12 15:20:29;;;;;;;16.37;8.07;;;9.40;1.00;;;;;;8347908;28;20217;-66
2022/03/12 15:24:37;;;;;;;20.07;10.97;;;9.30;1.00;;;;;;8329684;28;20248;-67
2022/03/12 15:28:49;;;;;;;11.70;7.57;;;9.10;1.00;;;;;;8335042;28;20221;-67
2022/03/12 15:32:50;;;;;;;16.53;8.67;;;9.10;1.00;;;;;;8333265;28;20269;-67
2022/03/12 15:36:51;;;;;;;12.00;6.30;;;9.00;1.00;;;;;;8334178;28;20609;-64
2022/03/12 15:40:51;;;;;;;15.30;8.20;;;8.80;1.00;;;;;;8335478;28;20284;-66
2022/03/12 15:44:52;;;;;;;26.03;9.93;;;8.80;1.00;;;;;;8328170;28;20284;-64
2022/03/12 15:48:54;;;;;;;20.33;10.80;;;8.60;1.00;;;;;;8339326;28;20230;-63
2022/03/12 15:52:55;;;;;;;23.33;12.60;;;8.50;1.00;;;;;;8344075;28;20205;-65
2022/03/12 15:56:56;;;;;;;24.97;12.87;;;8.50;1.00;;;;;;8338948;28;20197;-64
2022/03/12 16:00:57;;;;;;;28.60;13.83;;;8.30;1.00;;;;;;8336900;28;20209;-65
2022/03/12 16:04:59;;;;;;;23.23;11.27;;;8.20;1.00;;;;;;8343734;28;20201;-64
2022/03/12 16:08:59;;;;;;;22.80;12.43;;;8.10;1.00;;;;;;8327939;28;20417;-64
2022/03/12 16:13:01;;;;;;;21.70;12.07;;;7.90;1.00;;;;;;8327778;28;20224;-65
2022/03/12 16:17:06;;;;;;;39.17;21.27;;;7.80;1.00;;;;;;8352055;28;20235;-63
2022/03/12 16:21:08;;;;;;;26.57;12.87;;;7.60;1.00;;;;;;8345226;28;20208;-64
2022/03/12 16:25:13;;;;;;;49.60;27.10;;;7.50;1.00;;;;;;8351807;28;20218;-65
2022/03/12 16:29:15;;;;;;;41.37;17.57;;;7.30;1.00;;;;;;8340748;28;20224;-64
2022/03/12 16:33:16;;;;;;;13.00;7.00;;;7.10;1.00;;;;;;8353074;28;20202;-64
2022/03/12 16:37:18;;;;;;;9.80;5.87;;;7.00;1.00;;;;;;8343772;28;20206;-66
2022/03/12 16:41:19;;;;;;;12.30;6.63;;;6.80;1.00;;;;;;8334277;28;20206;-64
2022/03/12 16:45:23;;;;;;;10.60;5.80;;;6.60;1.00;;;;;;8346167;28;20205;-65
2022/03/12 16:49:24;;;;;;;11.47;5.60;;;6.40;1.00;;;;;;8339819;28;20228;-63
2022/03/12 16:53:25;;;;;;;12.20;7.30;;;6.30;1.00;;;;;;8333403;28;20206;-66
2022/03/12 16:57:26;;;;;;;14.40;8.83;;;6.10;1.00;;;;;;8346225;28;20213;-66
2022/03/12 17:01:27;;;;;;;18.00;9.27;;;5.90;1.00;;;;;;8335209;28;20219;-63
2022/03/12 17:05:30;;;;;;;15.30;8.80;;;5.70;1.00;;;;;;8352261;28;20258;-64
2022/03/12 17:09:31;;;;;;;13.90;8.07;;;5.60;1.00;;;;;;8337931;28;20237;-65
2022/03/12 17:13:33;;;;;;;10.43;6.00;;;5.50;1.00;;;;;;8345837;28;20207;-66
2022/03/12 17:17:35;;;;;;;10.87;6.67;;;5.40;1.00;;;;;;8336533;28;20197;-66
2022/03/12 17:21:39;;;;;;;17.20;8.60;;;5.30;1.00;;;;;;8351322;28;20205;-65
2022/03/12 17:25:41;;;;;;;17.67;8.20;;;5.20;1.00;;;;;;8347077;28;20206;-64
2022/03/12 17:29:42;;;;;;;12.23;6.87;;;5.10;1.00;;;;;;8346737;28;20236;-65
2022/03/12 17:33:43;;;;;;;11.37;6.00;;;5.00;1.00;;;;;;8326592;28;20290;-64
2022/03/12 17:37:44;;;;;;;10.97;6.50;;;4.90;1.00;;;;;;8344594;28;20198;-66
2022/03/12 17:41:46;;;;;;;10.90;6.53;;;4.90;1.00;;;;;;8351367;28;20197;-63
2022/03/12 17:45:47;;;;;;;16.10;7.77;;;4.80;1.00;;;;;;8341865;28;20244;-65
2022/03/12 17:49:48;;;;;;;21.00;8.83;;;4.70;1.00;;;;;;8350578;28;20301;-66
2022/03/12 17:53:49;;;;;;;18.47;8.87;;;4.70;1.00;;;;;;8334031;28;20201;-64
2022/03/12 17:57:50;;;;;;;133.90;47.53;;;4.60;1.00;;;;;;8333384;28;20198;-65
2022/03/12 18:01:52;;;;;;;46.93;16.47;;;4.50;1.00;;;;;;8350052;28;20223;-65
2022/03/12 18:05:53;;;;;;;41.80;14.77;;;4.40;1.00;;;;;;8333813;28;20225;-65
2022/03/12 18:09:54;;;;;;;29.60;11.80;;;4.40;1.00;;;;;;8331119;28;20245;-65
2022/03/12 18:13:57;;;;;;;27.17;12.27;;;4.20;1.00;;;;;;8334464;28;20206;-65
2022/03/12 18:17:59;;;;;;;32.23;13.30;;;4.20;1.00;;;;;;8349040;28;20285;-65
2022/03/12 18:22:00;;;;;;;35.27;13.43;;;4.10;1.00;;;;;;8350212;28;20848;-66
2022/03/12 18:26:01;;;;;;;29.27;12.40;;;4.00;1.00;;;;;;8332468;28;20209;-64
2022/03/12 18:30:02;;;;;;;27.27;11.43;;;3.90;1.00;;;;;;8331167;28;20224;-65
2022/03/12 18:34:03;;;;;;;22.17;9.97;;;3.80;1.00;;;;;;8332229;28;20217;-65
2022/03/12 18:38:07;;;;;;;16.33;9.63;;;3.80;1.00;;;;;;8331355;28;20205;-66
2022/03/12 18:42:08;;;;;;;23.37;10.00;;;3.70;1.00;;;;;;8350975;28;20438;-64
2022/03/12 18:46:11;;;;;;;19.07;9.30;;;3.70;1.00;;;;;;8340072;28;20243;-64
2022/03/12 18:50:13;;;;;;;21.53;10.20;;;3.60;1.00;;;;;;8346565;28;20268;-66
2022/03/12 18:54:15;;;;;;;18.53;9.83;;;3.50;1.00;;;;;;8349053;28;20217;-63
2022/03/12 18:58:18;;;;;;;19.67;9.63;;;3.40;1.00;;;;;;8348036;28;20190;-66
2022/03/12 19:02:19;;;;;;;18.53;9.57;;;3.30;1.00;;;;;;8323832;28;20209;-63
2022/03/12 19:06:20;;;;;;;19.30;8.57;;;3.20;1.00;;;;;;8348972;28;20206;-65
2022/03/12 19:10:24;;;;;;;17.07;8.07;;;3.00;1.00;;;;;;8327656;28;20224;-65
2022/03/12 19:14:26;;;;;;;14.60;7.80;;;2.90;1.00;;;;;;8338065;28;20224;-66
2022/03/12 19:18:27;;;;;;;14.37;7.77;;;2.70;1.00;;;;;;8348195;28;20201;-65
2022/03/12 19:22:28;;;;;;;15.30;8.50;;;2.60;1.00;;;;;;8348196;28;21143;-65
2022/03/12 19:26:31;;;;;;;15.40;8.43;;;2.50;1.00;;;;;;8339126;28;20299;-66
2022/03/12 19:30:33;;;;;;;22.53;11.03;;;2.50;1.00;;;;;;8330515;28;20226;-66
2022/03/12 19:34:34;;;;;;;28.20;12.13;;;2.50;1.00;;;;;;8329601;28;20204;-66
2022/03/12 19:38:37;;;;;;;20.00;9.33;;;2.50;1.00;;;;;;8348144;28;20213;-66
2022/03/12 19:42:41;;;;;;;21.53;11.00;;;2.30;1.00;;;;;;8332247;28;20212;-65
2022/03/12 19:46:42;;;;;;;37.20;19.43;;;2.20;9.30;;;;;;8333573;28;20208;-66
2022/03/12 19:50:43;;;;;;;20.93;11.33;;;2.00;25.60;;;;;;8336251;28;20207;-66
2022/03/12 19:54:43;;;;;;;17.67;9.07;;;1.80;39.60;;;;;;8340864;28;20211;-65
2022/03/12 19:58:45;;;;;;;13.77;7.10;;;1.60;76.20;;;;;;8336772;28;20289;-65
2022/03/12 20:02:45;;;;;;;15.07;7.60;;;1.40;99.90;;;;;;8344334;28;20199;-65
2022/03/12 20:06:46;;;;;;;15.33;7.47;;;1.10;99.90;;;;;;8345827;28;20204;-65
2022/03/12 20:10:48;;;;;;;19.67;8.77;;;1.00;99.90;;;;;;8352873;28;20210;-64
2022/03/12 20:14:52;;;;;;;16.53;8.30;;;0.90;99.90;;;;;;8345108;28;20199;-65
2022/03/12 20:18:57;;;;;;;20.73;9.73;;;0.80;99.90;;;;;;8348071;28;20211;-62
2022/03/12 20:22:58;;;;;;;18.37;8.90;;;0.70;99.90;;;;;;8352893;28;20202;-63
2022/03/12 20:27:01;;;;;;;18.27;8.90;;;0.70;99.90;;;;;;8349844;28;20308;-64
2022/03/12 20:31:04;;;;;;;27.50;11.63;;;0.60;99.90;;;;;;8351792;28;20198;-64
2022/03/12 20:35:05;;;;;;;25.47;11.80;;;0.50;99.90;;;;;;8333651;28;20296;-64
2022/03/12 20:39:06;;;;;;;20.83;9.43;;;0.50;99.90;;;;;;8348809;28;20209;-64
2022/03/12 20:43:07;;;;;;;20.80;9.97;;;0.30;99.90;;;;;;8337512;28;20198;-64
2022/03/12 20:47:09;;;;;;;19.30;9.87;;;0.20;99.90;;;;;;8345202;28;20221;-66
2022/03/12 20:51:10;;;;;;;18.97;9.23;;;0.30;99.90;;;;;;8339426;28;20202;-66
2022/03/12 20:55:13;;;;;;;17.13;8.93;;;0.30;99.90;;;;;;8336904;28;20223;-66
2022/03/12 20:59:15;;;;;;;35.87;14.27;;;0.20;99.90;;;;;;8342377;28;20331;-66
2022/03/12 21:03:17;;;;;;;36.53;13.57;;;0.30;99.90;;;;;;8346498;28;20224;-65
2022/03/12 21:07:18;;;;;;;34.10;14.23;;;0.30;99.90;;;;;;8329963;28;20222;-66